Terminal Aerodrome Forecast
Issued by NWS

Home | Current Version | Previous Version | Text Only | Print | Product List | Glossary On
Versions: 1 2 3 4 5 6 7 8 9 10 11 12 13 14 15 16 17
000
FTUS42 KFFC 212333
TAFFTY
TAF
KFTY 212333Z 2200/2224 13006KT P6SM VCSH SCT040 BKN080
      TEMPO 2200/2201 VRB15G25KT 5SM SHRA
     FM220500 13006KT P6SM BKN025
     FM220900 13005KT P6SM OVC008
     FM221500 15005KT P6SM VCSH BKN012
     FM221800 16006KT P6SM VCSH BKN035 PROB30 2218/2224 4SM TSRA
      BKN020CB=

USA.gov is the U.S. government's official web portal to all federal, state and local government web resources and services.